sensor_id;sensor_type;location;lat;lon;timestamp;P1;durP1;ratioP1;P2;durP2;ratioP2
10882;SDS011;5494;51.796;10.952;2023-07-28T00:01:08;1.13;;;0.40;;
10882;SDS011;5494;51.796;10.952;2023-07-28T00:03:37;1.53;;;0.40;;
10882;SDS011;5494;51.796;10.952;2023-07-28T00:06:06;1.87;;;0.50;;
10882;SDS011;5494;51.796;10.952;2023-07-28T00:08:34;1.53;;;0.50;;
10882;SDS011;5494;51.796;10.952;2023-07-28T00:11:02;0.93;;;0.60;;
10882;SDS011;5494;51.796;10.952;2023-07-28T00:13:30;0.63;;;0.40;;
10882;SDS011;5494;51.796;10.952;2023-07-28T00:15:58;1.47;;;0.60;;
10882;SDS011;5494;51.796;10.952;2023-07-28T00:18:27;1.87;;;0.63;;
10882;SDS011;5494;51.796;10.952;2023-07-28T00:20:55;2.37;;;0.50;;
10882;SDS011;5494;51.796;10.952;2023-07-28T00:23:24;0.53;;;0.40;;
10882;SDS011;5494;51.796;10.952;2023-07-28T00:25:53;2.30;;;0.60;;
10882;SDS011;5494;51.796;10.952;2023-07-28T00:28:21;1.20;;;0.60;;
10882;SDS011;5494;51.796;10.952;2023-07-28T00:30:49;2.07;;;0.60;;
10882;SDS011;5494;51.796;10.952;2023-07-28T00:33:18;0.93;;;0.60;;
10882;SDS011;5494;51.796;10.952;2023-07-28T00:35:46;0.50;;;0.50;;
10882;SDS011;5494;51.796;10.952;2023-07-28T00:38:14;0.50;;;0.50;;
10882;SDS011;5494;51.796;10.952;2023-07-28T00:40:44;1.50;;;0.67;;
10882;SDS011;5494;51.796;10.952;2023-07-28T00:43:12;1.47;;;0.50;;
10882;SDS011;5494;51.796;10.952;2023-07-28T00:45:40;0.50;;;0.40;;
10882;SDS011;5494;51.796;10.952;2023-07-28T00:48:10;0.50;;;0.50;;
10882;SDS011;5494;51.796;10.952;2023-07-28T00:50:41;0.60;;;0.37;;
10882;SDS011;5494;51.796;10.952;2023-07-28T00:53:12;1.23;;;0.50;;
10882;SDS011;5494;51.796;10.952;2023-07-28T00:55:40;1.10;;;0.63;;
10882;SDS011;5494;51.796;10.952;2023-07-28T00:58:10;0.50;;;0.50;;
10882;SDS011;5494;51.796;10.952;2023-07-28T01:00:38;1.03;;;0.50;;
10882;SDS011;5494;51.796;10.952;2023-07-28T01:03:06;2.53;;;0.70;;
10882;SDS011;5494;51.796;10.952;2023-07-28T01:05:38;0.40;;;0.23;;
10882;SDS011;5494;51.796;10.952;2023-07-28T01:08:16;0.70;;;0.60;;
10882;SDS011;5494;51.796;10.952;2023-07-28T01:10:54;1.00;;;0.40;;
10882;SDS011;5494;51.796;10.952;2023-07-28T01:13:24;1.37;;;0.47;;
10882;SDS011;5494;51.796;10.952;2023-07-28T01:15:52;1.20;;;0.40;;
10882;SDS011;5494;51.796;10.952;2023-07-28T01:18:20;0.97;;;0.63;;
10882;SDS011;5494;51.796;10.952;2023-07-28T01:20:49;2.00;;;0.53;;
10882;SDS011;5494;51.796;10.952;2023-07-28T01:23:24;1.03;;;0.30;;
10882;SDS011;5494;51.796;10.952;2023-07-28T01:26:08;0.40;;;0.40;;
10882;SDS011;5494;51.796;10.952;2023-07-28T01:28:39;0.77;;;0.57;;
10882;SDS011;5494;51.796;10.952;2023-07-28T01:31:09;3.03;;;0.67;;
10882;SDS011;5494;51.796;10.952;2023-07-28T01:33:38;0.30;;;0.30;;
10882;SDS011;5494;51.796;10.952;2023-07-28T01:36:06;0.77;;;0.37;;
10882;SDS011;5494;51.796;10.952;2023-07-28T01:38:34;0.53;;;0.40;;
10882;SDS011;5494;51.796;10.952;2023-07-28T01:41:02;0.50;;;0.40;;
10882;SDS011;5494;51.796;10.952;2023-07-28T01:43:30;0.80;;;0.33;;
10882;SDS011;5494;51.796;10.952;2023-07-28T01:45:59;0.40;;;0.37;;
10882;SDS011;5494;51.796;10.952;2023-07-28T01:48:28;1.30;;;0.33;;
10882;SDS011;5494;51.796;10.952;2023-07-28T01:50:57;0.30;;;0.30;;
10882;SDS011;5494;51.796;10.952;2023-07-28T01:53:26;2.63;;;0.40;;
10882;SDS011;5494;51.796;10.952;2023-07-28T01:55:54;0.40;;;0.40;;
10882;SDS011;5494;51.796;10.952;2023-07-28T01:58:22;1.60;;;0.30;;
10882;SDS011;5494;51.796;10.952;2023-07-28T02:00:50;0.50;;;0.40;;
10882;SDS011;5494;51.796;10.952;2023-07-28T02:03:20;0.87;;;0.33;;
10882;SDS011;5494;51.796;10.952;2023-07-28T02:05:48;0.90;;;0.20;;
10882;SDS011;5494;51.796;10.952;2023-07-28T02:08:19;1.60;;;0.53;;
10882;SDS011;5494;51.796;10.952;2023-07-28T02:10:47;1.37;;;0.20;;
10882;SDS011;5494;51.796;10.952;2023-07-28T02:13:15;2.33;;;0.57;;
10882;SDS011;5494;51.796;10.952;2023-07-28T02:15:43;0.77;;;0.40;;
10882;SDS011;5494;51.796;10.952;2023-07-28T02:18:11;0.60;;;0.30;;
10882;SDS011;5494;51.796;10.952;2023-07-28T02:20:41;0.20;;;0.20;;
10882;SDS011;5494;51.796;10.952;2023-07-28T02:23:09;0.20;;;0.20;;
10882;SDS011;5494;51.796;10.952;2023-07-28T02:25:39;0.40;;;0.20;;
10882;SDS011;5494;51.796;10.952;2023-07-28T02:28:08;1.47;;;0.30;;
10882;SDS011;5494;51.796;10.952;2023-07-28T02:30:38;2.63;;;0.57;;
10882;SDS011;5494;51.796;10.952;2023-07-28T02:33:06;2.93;;;0.30;;
10882;SDS011;5494;51.796;10.952;2023-07-28T02:35:34;0.80;;;0.30;;
10882;SDS011;5494;51.796;10.952;2023-07-28T02:38:04;0.20;;;0.20;;
10882;SDS011;5494;51.796;10.952;2023-07-28T02:40:32;0.27;;;0.27;;
10882;SDS011;5494;51.796;10.952;2023-07-28T02:43:00;1.70;;;0.30;;
10882;SDS011;5494;51.796;10.952;2023-07-28T02:45:28;1.13;;;0.20;;
10882;SDS011;5494;51.796;10.952;2023-07-28T02:47:56;1.00;;;0.23;;
10882;SDS011;5494;51.796;10.952;2023-07-28T02:50:24;0.63;;;0.20;;
10882;SDS011;5494;51.796;10.952;2023-07-28T02:52:52;1.67;;;0.30;;
10882;SDS011;5494;51.796;10.952;2023-07-28T02:55:22;0.40;;;0.40;;
10882;SDS011;5494;51.796;10.952;2023-07-28T02:57:50;0.10;;;0.10;;
10882;SDS011;5494;51.796;10.952;2023-07-28T03:00:18;0.27;;;0.20;;
10882;SDS011;5494;51.796;10.952;2023-07-28T03:02:47;1.73;;;0.40;;
10882;SDS011;5494;51.796;10.952;2023-07-28T03:05:15;0.83;;;0.30;;
10882;SDS011;5494;51.796;10.952;2023-07-28T03:08:13;3.27;;;0.47;;
10882;SDS011;5494;51.796;10.952;2023-07-28T03:10:42;0.33;;;0.30;;
10882;SDS011;5494;51.796;10.952;2023-07-28T03:13:10;0.13;;;0.13;;
10882;SDS011;5494;51.796;10.952;2023-07-28T03:15:38;1.07;;;0.30;;
10882;SDS011;5494;51.796;10.952;2023-07-28T03:18:06;0.97;;;0.30;;
10882;SDS011;5494;51.796;10.952;2023-07-28T03:20:34;0.50;;;0.37;;
10882;SDS011;5494;51.796;10.952;2023-07-28T03:23:02;0.27;;;0.27;;
10882;SDS011;5494;51.796;10.952;2023-07-28T03:25:31;1.47;;;0.30;;
10882;SDS011;5494;51.796;10.952;2023-07-28T03:28:00;0.60;;;0.40;;
10882;SDS011;5494;51.796;10.952;2023-07-28T03:30:29;0.40;;;0.40;;
10882;SDS011;5494;51.796;10.952;2023-07-28T03:32:57;0.60;;;0.40;;
10882;SDS011;5494;51.796;10.952;2023-07-28T03:35:26;0.87;;;0.40;;
10882;SDS011;5494;51.796;10.952;2023-07-28T03:38:04;0.40;;;0.40;;
10882;SDS011;5494;51.796;10.952;2023-07-28T03:40:32;0.50;;;0.30;;
10882;SDS011;5494;51.796;10.952;2023-07-28T03:43:01;0.83;;;0.63;;
10882;SDS011;5494;51.796;10.952;2023-07-28T03:45:30;0.33;;;0.33;;
10882;SDS011;5494;51.796;10.952;2023-07-28T03:47:58;1.67;;;0.30;;
10882;SDS011;5494;51.796;10.952;2023-07-28T03:50:26;0.50;;;0.30;;
10882;SDS011;5494;51.796;10.952;2023-07-28T03:52:54;0.30;;;0.30;;
10882;SDS011;5494;51.796;10.952;2023-07-28T03:55:23;0.60;;;0.30;;
10882;SDS011;5494;51.796;10.952;2023-07-28T03:57:51;0.83;;;0.23;;
10882;SDS011;5494;51.796;10.952;2023-07-28T04:00:21;0.93;;;0.20;;
10882;SDS011;5494;51.796;10.952;2023-07-28T04:02:50;0.50;;;0.20;;
10882;SDS011;5494;51.796;10.952;2023-07-28T04:05:18;0.30;;;0.20;;
10882;SDS011;5494;51.796;10.952;2023-07-28T04:07:46;0.73;;;0.33;;
10882;SDS011;5494;51.796;10.952;2023-07-28T04:10:14;0.50;;;0.20;;
10882;SDS011;5494;51.796;10.952;2023-07-28T04:12:42;0.30;;;0.30;;
10882;SDS011;5494;51.796;10.952;2023-07-28T04:15:11;0.90;;;0.40;;
10882;SDS011;5494;51.796;10.952;2023-07-28T04:17:40;0.30;;;0.30;;
10882;SDS011;5494;51.796;10.952;2023-07-28T04:20:09;0.40;;;0.30;;
10882;SDS011;5494;51.796;10.952;2023-07-28T04:22:38;1.13;;;0.40;;
10882;SDS011;5494;51.796;10.952;2023-07-28T04:25:06;2.33;;;0.40;;
10882;SDS011;5494;51.796;10.952;2023-07-28T04:27:36;2.97;;;0.70;;
10882;SDS011;5494;51.796;10.952;2023-07-28T04:30:05;2.77;;;0.60;;
10882;SDS011;5494;51.796;10.952;2023-07-28T04:32:34;0.70;;;0.60;;
10882;SDS011;5494;51.796;10.952;2023-07-28T04:35:12;0.93;;;0.70;;
10882;SDS011;5494;51.796;10.952;2023-07-28T04:37:59;1.00;;;0.90;;
10882;SDS011;5494;51.796;10.952;2023-07-28T04:40:39;1.17;;;0.87;;
10882;SDS011;5494;51.796;10.952;2023-07-28T04:43:08;0.70;;;0.70;;
10882;SDS011;5494;51.796;10.952;2023-07-28T04:45:36;0.97;;;0.70;;
10882;SDS011;5494;51.796;10.952;2023-07-28T04:48:11;1.80;;;0.70;;
10882;SDS011;5494;51.796;10.952;2023-07-28T04:50:41;0.83;;;0.73;;
10882;SDS011;5494;51.796;10.952;2023-07-28T04:53:27;0.70;;;0.70;;
10882;SDS011;5494;51.796;10.952;2023-07-28T04:56:07;1.80;;;0.70;;
10882;SDS011;5494;51.796;10.952;2023-07-28T04:58:35;1.57;;;0.70;;
10882;SDS011;5494;51.796;10.952;2023-07-28T05:01:03;1.80;;;0.70;;
10882;SDS011;5494;51.796;10.952;2023-07-28T05:03:38;1.17;;;0.70;;
10882;SDS011;5494;51.796;10.952;2023-07-28T05:06:21;1.00;;;0.73;;
10882;SDS011;5494;51.796;10.952;2023-07-28T05:08:49;2.37;;;0.80;;
10882;SDS011;5494;51.796;10.952;2023-07-28T05:11:23;1.03;;;0.70;;
10882;SDS011;5494;51.796;10.952;2023-07-28T05:13:51;1.23;;;0.57;;
10882;SDS011;5494;51.796;10.952;2023-07-28T05:16:19;2.10;;;0.90;;
10882;SDS011;5494;51.796;10.952;2023-07-28T05:19:06;0.70;;;0.60;;
10882;SDS011;5494;51.796;10.952;2023-07-28T05:21:42;2.20;;;0.63;;
10882;SDS011;5494;51.796;10.952;2023-07-28T05:24:13;1.57;;;0.80;;
10882;SDS011;5494;51.796;10.952;2023-07-28T05:26:41;2.27;;;0.60;;
10882;SDS011;5494;51.796;10.952;2023-07-28T05:29:10;1.17;;;0.73;;
10882;SDS011;5494;51.796;10.952;2023-07-28T05:31:38;0.97;;;0.57;;
10882;SDS011;5494;51.796;10.952;2023-07-28T05:34:15;1.33;;;0.60;;
10882;SDS011;5494;51.796;10.952;2023-07-28T05:36:45;0.60;;;0.60;;
10882;SDS011;5494;51.796;10.952;2023-07-28T05:39:13;0.63;;;0.47;;
10882;SDS011;5494;51.796;10.952;2023-07-28T05:41:43;2.07;;;0.40;;
10882;SDS011;5494;51.796;10.952;2023-07-28T05:44:13;0.40;;;0.40;;
10882;SDS011;5494;51.796;10.952;2023-07-28T05:46:41;0.77;;;0.50;;
10882;SDS011;5494;51.796;10.952;2023-07-28T05:49:11;1.60;;;0.50;;
10882;SDS011;5494;51.796;10.952;2023-07-28T05:51:39;0.57;;;0.30;;
10882;SDS011;5494;51.796;10.952;2023-07-28T05:54:12;0.60;;;0.60;;
10882;SDS011;5494;51.796;10.952;2023-07-28T05:56:41;0.50;;;0.40;;
10882;SDS011;5494;51.796;10.952;2023-07-28T05:59:10;0.50;;;0.30;;
10882;SDS011;5494;51.796;10.952;2023-07-28T06:01:39;3.97;;;0.80;;
10882;SDS011;5494;51.796;10.952;2023-07-28T06:04:25;0.30;;;0.30;;
10882;SDS011;5494;51.796;10.952;2023-07-28T06:06:57;0.70;;;0.40;;
10882;SDS011;5494;51.796;10.952;2023-07-28T06:09:26;0.30;;;0.30;;
10882;SDS011;5494;51.796;10.952;2023-07-28T06:11:54;1.07;;;0.50;;
10882;SDS011;5494;51.796;10.952;2023-07-28T06:14:25;1.77;;;0.60;;
10882;SDS011;5494;51.796;10.952;2023-07-28T06:16:55;0.73;;;0.40;;
10882;SDS011;5494;51.796;10.952;2023-07-28T06:19:26;0.70;;;0.50;;
10882;SDS011;5494;51.796;10.952;2023-07-28T06:21:54;3.03;;;0.50;;
10882;SDS011;5494;51.796;10.952;2023-07-28T06:24:23;1.57;;;0.60;;
10882;SDS011;5494;51.796;10.952;2023-07-28T06:26:54;0.97;;;0.60;;
10882;SDS011;5494;51.796;10.952;2023-07-28T06:29:23;1.70;;;0.80;;
10882;SDS011;5494;51.796;10.952;2023-07-28T06:31:51;3.10;;;0.60;;
10882;SDS011;5494;51.796;10.952;2023-07-28T06:34:19;1.07;;;0.60;;
10882;SDS011;5494;51.796;10.952;2023-07-28T06:36:47;1.33;;;0.70;;
10882;SDS011;5494;51.796;10.952;2023-07-28T06:39:15;0.93;;;0.80;;
10882;SDS011;5494;51.796;10.952;2023-07-28T06:41:43;2.53;;;0.70;;
10882;SDS011;5494;51.796;10.952;2023-07-28T06:44:15;1.37;;;0.60;;
10882;SDS011;5494;51.796;10.952;2023-07-28T06:46:44;1.50;;;0.80;;
10882;SDS011;5494;51.796;10.952;2023-07-28T06:49:14;0.60;;;0.60;;
10882;SDS011;5494;51.796;10.952;2023-07-28T06:51:42;1.13;;;0.90;;
10882;SDS011;5494;51.796;10.952;2023-07-28T06:54:10;0.90;;;0.80;;
10882;SDS011;5494;51.796;10.952;2023-07-28T06:56:39;0.70;;;0.70;;
10882;SDS011;5494;51.796;10.952;2023-07-28T06:59:07;0.70;;;0.50;;
10882;SDS011;5494;51.796;10.952;2023-07-28T07:01:45;0.50;;;0.50;;
10882;SDS011;5494;51.796;10.952;2023-07-28T07:04:13;0.80;;;0.80;;
10882;SDS011;5494;51.796;10.952;2023-07-28T07:06:41;1.17;;;0.63;;
10882;SDS011;5494;51.796;10.952;2023-07-28T07:09:09;1.07;;;0.80;;
10882;SDS011;5494;51.796;10.952;2023-07-28T07:11:40;1.17;;;0.70;;
10882;SDS011;5494;51.796;10.952;2023-07-28T07:14:09;1.67;;;0.70;;
10882;SDS011;5494;51.796;10.952;2023-07-28T07:16:37;1.27;;;0.70;;
10882;SDS011;5494;51.796;10.952;2023-07-28T07:19:06;0.83;;;0.70;;
10882;SDS011;5494;51.796;10.952;2023-07-28T07:21:35;1.63;;;0.60;;
10882;SDS011;5494;51.796;10.952;2023-07-28T07:24:03;2.30;;;0.80;;
10882;SDS011;5494;51.796;10.952;2023-07-28T07:26:32;0.77;;;0.60;;
10882;SDS011;5494;51.796;10.952;2023-07-28T07:29:00;4.40;;;0.90;;
10882;SDS011;5494;51.796;10.952;2023-07-28T07:31:29;1.83;;;0.83;;
10882;SDS011;5494;51.796;10.952;2023-07-28T07:33:57;2.57;;;0.93;;
10882;SDS011;5494;51.796;10.952;2023-07-28T07:36:27;1.13;;;1.00;;
10882;SDS011;5494;51.796;10.952;2023-07-28T07:38:55;1.93;;;0.90;;
10882;SDS011;5494;51.796;10.952;2023-07-28T07:41:23;2.60;;;0.90;;
10882;SDS011;5494;51.796;10.952;2023-07-28T07:43:52;0.90;;;0.90;;
10882;SDS011;5494;51.796;10.952;2023-07-28T07:46:21;1.00;;;0.90;;
10882;SDS011;5494;51.796;10.952;2023-07-28T07:48:50;1.13;;;0.70;;
10882;SDS011;5494;51.796;10.952;2023-07-28T07:51:19;0.90;;;0.83;;
10882;SDS011;5494;51.796;10.952;2023-07-28T07:53:48;0.83;;;0.70;;
10882;SDS011;5494;51.796;10.952;2023-07-28T07:56:16;2.30;;;1.00;;
10882;SDS011;5494;51.796;10.952;2023-07-28T07:58:45;1.80;;;0.70;;
10882;SDS011;5494;51.796;10.952;2023-07-28T08:01:13;1.57;;;0.90;;
10882;SDS011;5494;51.796;10.952;2023-07-28T08:03:41;1.00;;;1.00;;
10882;SDS011;5494;51.796;10.952;2023-07-28T08:06:09;1.10;;;1.00;;
10882;SDS011;5494;51.796;10.952;2023-07-28T08:08:38;2.50;;;0.80;;
10882;SDS011;5494;51.796;10.952;2023-07-28T08:11:10;2.80;;;1.10;;
10882;SDS011;5494;51.796;10.952;2023-07-28T08:13:39;2.00;;;1.10;;
10882;SDS011;5494;51.796;10.952;2023-07-28T08:16:07;1.87;;;1.20;;
10882;SDS011;5494;51.796;10.952;2023-07-28T08:18:35;1.00;;;0.90;;
10882;SDS011;5494;51.796;10.952;2023-07-28T08:21:04;1.87;;;1.03;;
10882;SDS011;5494;51.796;10.952;2023-07-28T08:23:32;2.10;;;1.10;;
10882;SDS011;5494;51.796;10.952;2023-07-28T08:26:00;2.07;;;1.20;;
10882;SDS011;5494;51.796;10.952;2023-07-28T08:28:29;1.97;;;1.10;;
10882;SDS011;5494;51.796;10.952;2023-07-28T08:30:59;1.00;;;1.00;;
10882;SDS011;5494;51.796;10.952;2023-07-28T08:33:27;2.40;;;1.23;;
10882;SDS011;5494;51.796;10.952;2023-07-28T08:35:55;1.00;;;1.00;;
10882;SDS011;5494;51.796;10.952;2023-07-28T08:38:26;2.47;;;1.10;;
10882;SDS011;5494;51.796;10.952;2023-07-28T08:40:56;1.70;;;1.00;;
10882;SDS011;5494;51.796;10.952;2023-07-28T08:43:24;1.50;;;1.20;;
10882;SDS011;5494;51.796;10.952;2023-07-28T08:45:54;1.27;;;1.20;;
10882;SDS011;5494;51.796;10.952;2023-07-28T08:48:22;2.40;;;1.20;;
10882;SDS011;5494;51.796;10.952;2023-07-28T08:50:52;1.60;;;1.30;;
10882;SDS011;5494;51.796;10.952;2023-07-28T08:53:21;2.27;;;1.13;;
10882;SDS011;5494;51.796;10.952;2023-07-28T08:55:49;2.50;;;1.50;;
10882;SDS011;5494;51.796;10.952;2023-07-28T08:58:19;2.13;;;1.23;;
10882;SDS011;5494;51.796;10.952;2023-07-28T09:00:50;1.70;;;1.40;;
10882;SDS011;5494;51.796;10.952;2023-07-28T09:03:21;2.03;;;1.20;;
10882;SDS011;5494;51.796;10.952;2023-07-28T09:05:54;1.60;;;1.27;;
10882;SDS011;5494;51.796;10.952;2023-07-28T09:08:28;1.47;;;1.37;;
10882;SDS011;5494;51.796;10.952;2023-07-28T09:11:01;1.40;;;1.30;;
10882;SDS011;5494;51.796;10.952;2023-07-28T09:13:35;2.87;;;1.47;;
10882;SDS011;5494;51.796;10.952;2023-07-28T09:16:05;1.60;;;1.50;;
10882;SDS011;5494;51.796;10.952;2023-07-28T09:18:46;2.67;;;1.60;;
10882;SDS011;5494;51.796;10.952;2023-07-28T09:21:16;1.40;;;1.30;;
10882;SDS011;5494;51.796;10.952;2023-07-28T09:23:47;1.47;;;1.37;;
10882;SDS011;5494;51.796;10.952;2023-07-28T09:26:15;1.77;;;1.10;;
10882;SDS011;5494;51.796;10.952;2023-07-28T09:28:44;2.27;;;1.20;;
10882;SDS011;5494;51.796;10.952;2023-07-28T09:31:13;1.43;;;1.20;;
10882;SDS011;5494;51.796;10.952;2023-07-28T09:33:41;2.70;;;1.20;;
10882;SDS011;5494;51.796;10.952;2023-07-28T09:36:14;1.90;;;1.40;;
10882;SDS011;5494;51.796;10.952;2023-07-28T09:38:43;1.33;;;1.23;;
10882;SDS011;5494;51.796;10.952;2023-07-28T09:41:12;1.57;;;1.40;;
10882;SDS011;5494;51.796;10.952;2023-07-28T09:43:40;1.30;;;1.20;;
10882;SDS011;5494;51.796;10.952;2023-07-28T09:46:10;1.40;;;1.30;;
10882;SDS011;5494;51.796;10.952;2023-07-28T09:48:43;1.77;;;1.37;;
10882;SDS011;5494;51.796;10.952;2023-07-28T09:51:18;1.30;;;1.20;;
10882;SDS011;5494;51.796;10.952;2023-07-28T09:53:54;1.20;;;1.10;;
10882;SDS011;5494;51.796;10.952;2023-07-28T09:56:28;2.07;;;1.30;;
10882;SDS011;5494;51.796;10.952;2023-07-28T09:58:57;1.93;;;1.30;;
10882;SDS011;5494;51.796;10.952;2023-07-28T10:01:31;2.50;;;1.40;;
10882;SDS011;5494;51.796;10.952;2023-07-28T10:04:01;2.20;;;1.30;;
10882;SDS011;5494;51.796;10.952;2023-07-28T10:06:31;3.00;;;1.50;;
10882;SDS011;5494;51.796;10.952;2023-07-28T10:09:01;1.53;;;1.40;;
10882;SDS011;5494;51.796;10.952;2023-07-28T10:11:31;1.40;;;1.30;;
10882;SDS011;5494;51.796;10.952;2023-07-28T10:14:00;1.40;;;1.27;;
10882;SDS011;5494;51.796;10.952;2023-07-28T10:16:29;1.77;;;1.17;;
10882;SDS011;5494;51.796;10.952;2023-07-28T10:18:58;1.47;;;1.37;;
10882;SDS011;5494;51.796;10.952;2023-07-28T10:21:27;2.30;;;2.10;;
10882;SDS011;5494;51.796;10.952;2023-07-28T10:24:02;3.97;;;1.40;;
10882;SDS011;5494;51.796;10.952;2023-07-28T10:26:36;3.37;;;1.60;;
10882;SDS011;5494;51.796;10.952;2023-07-28T10:29:08;2.13;;;1.60;;
10882;SDS011;5494;51.796;10.952;2023-07-28T10:31:51;1.97;;;1.40;;
10882;SDS011;5494;51.796;10.952;2023-07-28T10:34:22;1.60;;;1.50;;
10882;SDS011;5494;51.796;10.952;2023-07-28T10:36:57;2.10;;;1.60;;
10882;SDS011;5494;51.796;10.952;2023-07-28T10:39:27;2.17;;;1.60;;
10882;SDS011;5494;51.796;10.952;2023-07-28T10:42:00;1.67;;;1.27;;
10882;SDS011;5494;51.796;10.952;2023-07-28T10:44:31;4.87;;;1.77;;
10882;SDS011;5494;51.796;10.952;2023-07-28T10:47:01;1.70;;;1.60;;
10882;SDS011;5494;51.796;10.952;2023-07-28T10:49:29;2.10;;;1.70;;
10882;SDS011;5494;51.796;10.952;2023-07-28T10:51:59;2.07;;;1.70;;
10882;SDS011;5494;51.796;10.952;2023-07-28T10:54:28;1.80;;;1.70;;
10882;SDS011;5494;51.796;10.952;2023-07-28T10:57:01;3.97;;;1.67;;
10882;SDS011;5494;51.796;10.952;2023-07-28T10:59:32;3.07;;;1.80;;
10882;SDS011;5494;51.796;10.952;2023-07-28T11:02:00;3.73;;;1.80;;
10882;SDS011;5494;51.796;10.952;2023-07-28T11:04:28;2.80;;;2.00;;
10882;SDS011;5494;51.796;10.952;2023-07-28T11:06:56;2.40;;;2.20;;
10882;SDS011;5494;51.796;10.952;2023-07-28T11:09:25;4.43;;;2.43;;
10882;SDS011;5494;51.796;10.952;2023-07-28T11:11:54;3.13;;;2.13;;
10882;SDS011;5494;51.796;10.952;2023-07-28T11:14:22;2.47;;;2.20;;
10882;SDS011;5494;51.796;10.952;2023-07-28T11:16:51;4.60;;;2.20;;
10882;SDS011;5494;51.796;10.952;2023-07-28T11:19:20;2.50;;;2.30;;
10882;SDS011;5494;51.796;10.952;2023-07-28T11:21:52;3.30;;;2.03;;
10882;SDS011;5494;51.796;10.952;2023-07-28T11:24:22;2.33;;;2.13;;
10882;SDS011;5494;51.796;10.952;2023-07-28T11:26:51;2.40;;;2.20;;
10882;SDS011;5494;51.796;10.952;2023-07-28T11:29:20;4.40;;;2.27;;
10882;SDS011;5494;51.796;10.952;2023-07-28T11:31:49;4.90;;;2.80;;
10882;SDS011;5494;51.796;10.952;2023-07-28T11:34:17;2.93;;;2.73;;
10882;SDS011;5494;51.796;10.952;2023-07-28T11:36:46;3.10;;;2.40;;
10882;SDS011;5494;51.796;10.952;2023-07-28T11:39:15;3.47;;;2.73;;
10882;SDS011;5494;51.796;10.952;2023-07-28T11:41:45;2.80;;;2.43;;
10882;SDS011;5494;51.796;10.952;2023-07-28T11:44:15;2.53;;;2.33;;
10882;SDS011;5494;51.796;10.952;2023-07-28T11:46:45;3.10;;;2.37;;
10882;SDS011;5494;51.796;10.952;2023-07-28T11:49:14;2.90;;;2.60;;
10882;SDS011;5494;51.796;10.952;2023-07-28T11:51:49;2.53;;;2.33;;
10882;SDS011;5494;51.796;10.952;2023-07-28T11:54:20;2.40;;;2.20;;
10882;SDS011;5494;51.796;10.952;2023-07-28T11:56:51;2.53;;;2.33;;
10882;SDS011;5494;51.796;10.952;2023-07-28T11:59:24;2.83;;;2.40;;
10882;SDS011;5494;51.796;10.952;2023-07-28T12:01:54;2.23;;;2.03;;
10882;SDS011;5494;51.796;10.952;2023-07-28T12:04:28;2.37;;;2.17;;
10882;SDS011;5494;51.796;10.952;2023-07-28T12:07:01;2.70;;;2.50;;
10882;SDS011;5494;51.796;10.952;2023-07-28T12:09:33;2.40;;;2.20;;
10882;SDS011;5494;51.796;10.952;2023-07-28T12:12:22;4.07;;;2.40;;
10882;SDS011;5494;51.796;10.952;2023-07-28T12:14:52;2.60;;;2.40;;
10882;SDS011;5494;51.796;10.952;2023-07-28T12:17:25;2.93;;;2.10;;
10882;SDS011;5494;51.796;10.952;2023-07-28T12:20:14;2.43;;;2.13;;
10882;SDS011;5494;51.796;10.952;2023-07-28T12:22:44;2.60;;;2.40;;
10882;SDS011;5494;51.796;10.952;2023-07-28T12:25:13;3.50;;;2.50;;
10882;SDS011;5494;51.796;10.952;2023-07-28T12:27:42;3.13;;;2.60;;
10882;SDS011;5494;51.796;10.952;2023-07-28T12:30:10;3.33;;;2.27;;
10882;SDS011;5494;51.796;10.952;2023-07-28T12:32:44;2.50;;;2.30;;
10882;SDS011;5494;51.796;10.952;2023-07-28T12:35:15;2.80;;;2.60;;
10882;SDS011;5494;51.796;10.952;2023-07-28T12:37:43;3.60;;;2.00;;
10882;SDS011;5494;51.796;10.952;2023-07-28T12:40:14;2.77;;;2.57;;
10882;SDS011;5494;51.796;10.952;2023-07-28T12:42:46;5.73;;;2.20;;
10882;SDS011;5494;51.796;10.952;2023-07-28T12:45:17;2.70;;;2.40;;
10882;SDS011;5494;51.796;10.952;2023-07-28T12:47:49;2.07;;;1.97;;
10882;SDS011;5494;51.796;10.952;2023-07-28T12:50:20;4.40;;;2.13;;
10882;SDS011;5494;51.796;10.952;2023-07-28T12:52:50;1.93;;;1.83;;
10882;SDS011;5494;51.796;10.952;2023-07-28T12:55:21;2.53;;;1.90;;
10882;SDS011;5494;51.796;10.952;2023-07-28T12:57:49;2.20;;;2.00;;
10882;SDS011;5494;51.796;10.952;2023-07-28T13:00:17;2.63;;;2.10;;
10882;SDS011;5494;51.796;10.952;2023-07-28T13:02:50;2.23;;;2.03;;
10882;SDS011;5494;51.796;10.952;2023-07-28T13:05:18;2.80;;;1.97;;
10882;SDS011;5494;51.796;10.952;2023-07-28T13:07:46;2.37;;;2.10;;
10882;SDS011;5494;51.796;10.952;2023-07-28T13:10:17;2.30;;;2.10;;
10882;SDS011;5494;51.796;10.952;2023-07-28T13:12:48;2.13;;;1.80;;
10882;SDS011;5494;51.796;10.952;2023-07-28T13:15:16;2.10;;;1.90;;
10882;SDS011;5494;51.796;10.952;2023-07-28T13:17:44;3.20;;;1.90;;
10882;SDS011;5494;51.796;10.952;2023-07-28T13:20:14;2.70;;;1.90;;
10882;SDS011;5494;51.796;10.952;2023-07-28T13:22:42;2.53;;;1.90;;
10882;SDS011;5494;51.796;10.952;2023-07-28T13:25:10;2.37;;;1.93;;
10882;SDS011;5494;51.796;10.952;2023-07-28T13:27:39;1.70;;;1.60;;
10882;SDS011;5494;51.796;10.952;2023-07-28T13:30:09;1.73;;;1.63;;
10882;SDS011;5494;51.796;10.952;2023-07-28T13:32:39;2.60;;;2.00;;
10882;SDS011;5494;51.796;10.952;2023-07-28T13:35:07;1.90;;;1.80;;
10882;SDS011;5494;51.796;10.952;2023-07-28T13:37:37;1.87;;;1.77;;
10882;SDS011;5494;51.796;10.952;2023-07-28T13:40:05;2.00;;;1.63;;
10882;SDS011;5494;51.796;10.952;2023-07-28T13:42:38;2.37;;;2.20;;
10882;SDS011;5494;51.796;10.952;2023-07-28T13:45:08;2.00;;;1.90;;
10882;SDS011;5494;51.796;10.952;2023-07-28T13:47:37;2.43;;;2.00;;
10882;SDS011;5494;51.796;10.952;2023-07-28T13:50:05;2.70;;;2.17;;
10882;SDS011;5494;51.796;10.952;2023-07-28T13:52:34;2.33;;;2.13;;
10882;SDS011;5494;51.796;10.952;2023-07-28T13:55:04;3.40;;;2.50;;
10882;SDS011;5494;51.796;10.952;2023-07-28T13:57:35;2.60;;;2.40;;
10882;SDS011;5494;51.796;10.952;2023-07-28T14:00:04;2.27;;;2.17;;
10882;SDS011;5494;51.796;10.952;2023-07-28T14:02:35;2.57;;;2.37;;
10882;SDS011;5494;51.796;10.952;2023-07-28T14:05:04;2.83;;;2.50;;
10882;SDS011;5494;51.796;10.952;2023-07-28T14:07:33;3.50;;;2.20;;
10882;SDS011;5494;51.796;10.952;2023-07-28T14:10:03;3.03;;;2.40;;
10882;SDS011;5494;51.796;10.952;2023-07-28T14:12:33;2.60;;;2.40;;
10882;SDS011;5494;51.796;10.952;2023-07-28T14:15:01;2.67;;;2.30;;
10882;SDS011;5494;51.796;10.952;2023-07-28T14:17:30;3.10;;;2.47;;
10882;SDS011;5494;51.796;10.952;2023-07-28T14:19:58;2.60;;;2.40;;
10882;SDS011;5494;51.796;10.952;2023-07-28T14:22:27;2.67;;;2.43;;
10882;SDS011;5494;51.796;10.952;2023-07-28T14:24:55;2.97;;;2.77;;
10882;SDS011;5494;51.796;10.952;2023-07-28T14:27:24;2.87;;;2.57;;
10882;SDS011;5494;51.796;10.952;2023-07-28T14:29:52;3.20;;;2.97;;
10882;SDS011;5494;51.796;10.952;2023-07-28T14:32:21;2.70;;;2.50;;
10882;SDS011;5494;51.796;10.952;2023-07-28T14:34:49;3.30;;;2.50;;
10882;SDS011;5494;51.796;10.952;2023-07-28T14:37:21;2.87;;;2.57;;
10882;SDS011;5494;51.796;10.952;2023-07-28T14:39:49;2.60;;;2.40;;
10882;SDS011;5494;51.796;10.952;2023-07-28T14:42:18;4.63;;;2.77;;
10882;SDS011;5494;51.796;10.952;2023-07-28T14:44:47;2.80;;;2.60;;
10882;SDS011;5494;51.796;10.952;2023-07-28T14:47:16;2.60;;;2.40;;
10882;SDS011;5494;51.796;10.952;2023-07-28T14:49:44;2.97;;;2.77;;
10882;SDS011;5494;51.796;10.952;2023-07-28T14:52:12;2.93;;;2.60;;
10882;SDS011;5494;51.796;10.952;2023-07-28T14:54:40;2.80;;;2.50;;
10882;SDS011;5494;51.796;10.952;2023-07-28T14:57:08;3.03;;;2.67;;
10882;SDS011;5494;51.796;10.952;2023-07-28T15:00:01;2.90;;;2.70;;
10882;SDS011;5494;51.796;10.952;2023-07-28T15:02:29;3.10;;;2.80;;
10882;SDS011;5494;51.796;10.952;2023-07-28T15:04:57;2.90;;;2.70;;